sensor_id;sensor_type;location;lat;lon;timestamp;temperature;humidity
55721;DHT22;41626;53.098;6.168;2023-03-04T00:01:37;6.20;99.90
55721;DHT22;41626;53.098;6.168;2023-03-04T00:04:03;6.20;99.90
55721;DHT22;41626;53.098;6.168;2023-03-04T00:06:29;6.20;99.90
55721;DHT22;41626;53.098;6.168;2023-03-04T00:08:54;6.30;99.90
55721;DHT22;41626;53.098;6.168;2023-03-04T00:11:20;6.20;99.90
55721;DHT22;41626;53.098;6.168;2023-03-04T00:13:46;6.20;99.90
55721;DHT22;41626;53.098;6.168;2023-03-04T00:16:11;6.20;99.90
55721;DHT22;41626;53.098;6.168;2023-03-04T00:18:37;6.20;99.90
55721;DHT22;41626;53.098;6.168;2023-03-04T00:21:03;6.20;99.90
55721;DHT22;41626;53.098;6.168;2023-03-04T00:23:29;6.20;99.90
55721;DHT22;41626;53.098;6.168;2023-03-04T00:25:54;6.20;99.90
55721;DHT22;41626;53.098;6.168;2023-03-04T00:28:20;6.20;99.90
55721;DHT22;41626;53.098;6.168;2023-03-04T00:30:46;6.10;99.90
55721;DHT22;41626;53.098;6.168;2023-03-04T00:33:11;6.20;99.90
55721;DHT22;41626;53.098;6.168;2023-03-04T00:35:37;6.20;99.90
55721;DHT22;41626;53.098;6.168;2023-03-04T00:38:03;6.10;99.90
55721;DHT22;41626;53.098;6.168;2023-03-04T00:40:29;6.20;99.90
55721;DHT22;41626;53.098;6.168;2023-03-04T00:42:54;6.20;99.90
55721;DHT22;41626;53.098;6.168;2023-03-04T00:45:20;6.10;99.90
55721;DHT22;41626;53.098;6.168;2023-03-04T00:47:46;6.10;99.90
55721;DHT22;41626;53.098;6.168;2023-03-04T00:50:11;6.20;99.90
55721;DHT22;41626;53.098;6.168;2023-03-04T00:52:37;6.20;99.90
55721;DHT22;41626;53.098;6.168;2023-03-04T00:55:03;6.20;99.90
55721;DHT22;41626;53.098;6.168;2023-03-04T00:57:29;6.10;99.90
55721;DHT22;41626;53.098;6.168;2023-03-04T00:59:55;6.10;99.90
55721;DHT22;41626;53.098;6.168;2023-03-04T01:02:20;6.10;99.90
55721;DHT22;41626;53.098;6.168;2023-03-04T01:04:46;6.10;99.90
55721;DHT22;41626;53.098;6.168;2023-03-04T01:07:12;6.10;99.90
55721;DHT22;41626;53.098;6.168;2023-03-04T01:09:38;6.10;99.90
55721;DHT22;41626;53.098;6.168;2023-03-04T01:12:03;6.10;99.90
55721;DHT22;41626;53.098;6.168;2023-03-04T01:14:29;6.10;99.90
55721;DHT22;41626;53.098;6.168;2023-03-04T01:16:55;6.10;99.90
55721;DHT22;41626;53.098;6.168;2023-03-04T01:19:20;6.00;99.90
55721;DHT22;41626;53.098;6.168;2023-03-04T01:21:46;6.10;99.90
55721;DHT22;41626;53.098;6.168;2023-03-04T01:24:11;6.10;99.90
55721;DHT22;41626;53.098;6.168;2023-03-04T01:26:37;6.00;99.90
55721;DHT22;41626;53.098;6.168;2023-03-04T01:29:03;6.10;99.90
55721;DHT22;41626;53.098;6.168;2023-03-04T01:31:28;6.00;99.90
55721;DHT22;41626;53.098;6.168;2023-03-04T01:33:54;6.10;99.90
55721;DHT22;41626;53.098;6.168;2023-03-04T01:36:20;6.00;99.90
55721;DHT22;41626;53.098;6.168;2023-03-04T01:38:45;6.00;99.90
55721;DHT22;41626;53.098;6.168;2023-03-04T01:41:12;6.00;99.90
55721;DHT22;41626;53.098;6.168;2023-03-04T01:43:38;6.00;99.90
55721;DHT22;41626;53.098;6.168;2023-03-04T01:46:05;6.00;99.90
55721;DHT22;41626;53.098;6.168;2023-03-04T01:48:34;6.10;99.90
55721;DHT22;41626;53.098;6.168;2023-03-04T01:51:05;6.00;99.90
55721;DHT22;41626;53.098;6.168;2023-03-04T01:53:31;6.00;99.90
55721;DHT22;41626;53.098;6.168;2023-03-04T01:56:01;6.00;99.90
55721;DHT22;41626;53.098;6.168;2023-03-04T01:58:30;6.00;99.90
55721;DHT22;41626;53.098;6.168;2023-03-04T02:00:56;6.00;99.90
55721;DHT22;41626;53.098;6.168;2023-03-04T02:03:23;6.00;99.90
55721;DHT22;41626;53.098;6.168;2023-03-04T02:05:50;6.00;99.90
55721;DHT22;41626;53.098;6.168;2023-03-04T02:08:18;5.90;99.90
55721;DHT22;41626;53.098;6.168;2023-03-04T02:10:45;6.10;99.90
55721;DHT22;41626;53.098;6.168;2023-03-04T02:13:13;6.00;99.90
55721;DHT22;41626;53.098;6.168;2023-03-04T02:15:39;5.90;99.90
55721;DHT22;41626;53.098;6.168;2023-03-04T02:18:18;5.90;99.90
55721;DHT22;41626;53.098;6.168;2023-03-04T02:21:14;5.90;99.90
55721;DHT22;41626;53.098;6.168;2023-03-04T02:24:13;5.90;99.90
55721;DHT22;41626;53.098;6.168;2023-03-04T02:26:41;5.90;99.90
55721;DHT22;41626;53.098;6.168;2023-03-04T02:29:10;5.90;99.90
55721;DHT22;41626;53.098;6.168;2023-03-04T02:31:42;5.90;99.90
55721;DHT22;41626;53.098;6.168;2023-03-04T02:34:14;5.90;99.90
55721;DHT22;41626;53.098;6.168;2023-03-04T02:36:40;5.90;99.90
55721;DHT22;41626;53.098;6.168;2023-03-04T02:39:20;5.90;99.90
55721;DHT22;41626;53.098;6.168;2023-03-04T02:41:48;6.00;99.90
55721;DHT22;41626;53.098;6.168;2023-03-04T02:46:45;6.00;99.90
55721;DHT22;41626;53.098;6.168;2023-03-04T02:49:11;6.00;99.90
55721;DHT22;41626;53.098;6.168;2023-03-04T02:51:37;5.90;99.90
55721;DHT22;41626;53.098;6.168;2023-03-04T02:54:03;6.00;99.90
55721;DHT22;41626;53.098;6.168;2023-03-04T02:56:28;6.00;99.90
55721;DHT22;41626;53.098;6.168;2023-03-04T02:58:54;6.00;99.90
55721;DHT22;41626;53.098;6.168;2023-03-04T03:01:20;6.10;99.90
55721;DHT22;41626;53.098;6.168;2023-03-04T03:03:45;6.00;99.90
55721;DHT22;41626;53.098;6.168;2023-03-04T03:06:11;6.10;99.90
55721;DHT22;41626;53.098;6.168;2023-03-04T03:08:37;6.10;99.90
55721;DHT22;41626;53.098;6.168;2023-03-04T03:11:03;6.10;99.90
55721;DHT22;41626;53.098;6.168;2023-03-04T03:13:28;6.00;99.90
55721;DHT22;41626;53.098;6.168;2023-03-04T03:15:54;6.00;99.90
55721;DHT22;41626;53.098;6.168;2023-03-04T03:18:20;6.00;99.90
55721;DHT22;41626;53.098;6.168;2023-03-04T03:20:45;6.00;99.90
55721;DHT22;41626;53.098;6.168;2023-03-04T03:23:11;6.10;99.90
55721;DHT22;41626;53.098;6.168;2023-03-04T03:25:37;6.10;99.90
55721;DHT22;41626;53.098;6.168;2023-03-04T03:28:03;6.00;99.90
55721;DHT22;41626;53.098;6.168;2023-03-04T03:30:29;6.10;99.90
55721;DHT22;41626;53.098;6.168;2023-03-04T03:32:54;6.10;99.90
55721;DHT22;41626;53.098;6.168;2023-03-04T03:35:20;6.20;99.90
55721;DHT22;41626;53.098;6.168;2023-03-04T03:37:46;6.10;99.90
55721;DHT22;41626;53.098;6.168;2023-03-04T03:40:13;6.10;99.90
55721;DHT22;41626;53.098;6.168;2023-03-04T03:42:39;6.10;99.90
55721;DHT22;41626;53.098;6.168;2023-03-04T03:45:05;6.00;99.90
55721;DHT22;41626;53.098;6.168;2023-03-04T03:47:31;6.10;99.90
55721;DHT22;41626;53.098;6.168;2023-03-04T03:49:57;6.00;99.90
55721;DHT22;41626;53.098;6.168;2023-03-04T03:52:22;6.00;99.90
55721;DHT22;41626;53.098;6.168;2023-03-04T03:54:48;6.00;99.90
55721;DHT22;41626;53.098;6.168;2023-03-04T03:57:14;6.10;99.90
55721;DHT22;41626;53.098;6.168;2023-03-04T03:59:39;6.10;99.90
55721;DHT22;41626;53.098;6.168;2023-03-04T04:02:05;6.00;99.90
55721;DHT22;41626;53.098;6.168;2023-03-04T04:04:31;6.10;99.90
55721;DHT22;41626;53.098;6.168;2023-03-04T04:06:56;6.20;99.90
55721;DHT22;41626;53.098;6.168;2023-03-04T04:09:22;6.10;99.90
55721;DHT22;41626;53.098;6.168;2023-03-04T04:11:48;6.10;99.90
55721;DHT22;41626;53.098;6.168;2023-03-04T04:14:14;6.10;99.90
55721;DHT22;41626;53.098;6.168;2023-03-04T04:16:40;6.10;99.90
55721;DHT22;41626;53.098;6.168;2023-03-04T04:19:05;6.20;99.90
55721;DHT22;41626;53.098;6.168;2023-03-04T04:21:31;6.10;99.90
55721;DHT22;41626;53.098;6.168;2023-03-04T04:23:57;6.10;99.90
55721;DHT22;41626;53.098;6.168;2023-03-04T04:26:22;6.10;99.90
55721;DHT22;41626;53.098;6.168;2023-03-04T04:28:48;6.20;99.90
55721;DHT22;41626;53.098;6.168;2023-03-04T04:31:14;6.20;99.90
55721;DHT22;41626;53.098;6.168;2023-03-04T04:33:39;6.20;99.90
55721;DHT22;41626;53.098;6.168;2023-03-04T04:36:05;6.20;99.90
55721;DHT22;41626;53.098;6.168;2023-03-04T04:38:31;6.20;99.90
55721;DHT22;41626;53.098;6.168;2023-03-04T04:40:57;6.20;99.90
55721;DHT22;41626;53.098;6.168;2023-03-04T04:43:24;6.30;99.90
55721;DHT22;41626;53.098;6.168;2023-03-04T04:45:50;6.20;99.90
55721;DHT22;41626;53.098;6.168;2023-03-04T04:48:16;6.20;99.90
55721;DHT22;41626;53.098;6.168;2023-03-04T04:50:41;6.20;99.90
55721;DHT22;41626;53.098;6.168;2023-03-04T04:53:07;6.20;99.90
55721;DHT22;41626;53.098;6.168;2023-03-04T04:55:34;6.10;99.90
55721;DHT22;41626;53.098;6.168;2023-03-04T04:58:00;6.20;99.90
55721;DHT22;41626;53.098;6.168;2023-03-04T05:00:26;6.20;99.90
55721;DHT22;41626;53.098;6.168;2023-03-04T05:02:51;6.20;99.90
55721;DHT22;41626;53.098;6.168;2023-03-04T05:05:17;6.20;99.90
55721;DHT22;41626;53.098;6.168;2023-03-04T05:07:43;6.10;99.90
55721;DHT22;41626;53.098;6.168;2023-03-04T05:10:09;6.10;99.90
55721;DHT22;41626;53.098;6.168;2023-03-04T05:12:35;6.10;99.90
55721;DHT22;41626;53.098;6.168;2023-03-04T05:15:00;6.00;99.90
55721;DHT22;41626;53.098;6.168;2023-03-04T05:17:26;6.00;99.90
55721;DHT22;41626;53.098;6.168;2023-03-04T05:19:52;6.00;99.90
55721;DHT22;41626;53.098;6.168;2023-03-04T05:22:17;6.00;99.90
55721;DHT22;41626;53.098;6.168;2023-03-04T05:24:43;5.90;99.90
55721;DHT22;41626;53.098;6.168;2023-03-04T05:27:09;6.00;99.90
55721;DHT22;41626;53.098;6.168;2023-03-04T05:29:34;5.90;99.90
55721;DHT22;41626;53.098;6.168;2023-03-04T05:32:00;6.00;99.90
55721;DHT22;41626;53.098;6.168;2023-03-04T05:34:25;6.00;99.90
55721;DHT22;41626;53.098;6.168;2023-03-04T05:36:51;6.00;99.90
55721;DHT22;41626;53.098;6.168;2023-03-04T05:39:17;5.90;99.90
55721;DHT22;41626;53.098;6.168;2023-03-04T05:41:42;5.90;99.90
55721;DHT22;41626;53.098;6.168;2023-03-04T05:44:08;6.00;99.90
55721;DHT22;41626;53.098;6.168;2023-03-04T05:46:34;6.00;99.90
55721;DHT22;41626;53.098;6.168;2023-03-04T05:49:00;5.90;99.90
55721;DHT22;41626;53.098;6.168;2023-03-04T05:51:25;6.00;99.90
55721;DHT22;41626;53.098;6.168;2023-03-04T05:53:51;5.90;99.90
55721;DHT22;41626;53.098;6.168;2023-03-04T05:56:18;5.90;99.90
55721;DHT22;41626;53.098;6.168;2023-03-04T05:58:44;5.90;99.90
55721;DHT22;41626;53.098;6.168;2023-03-04T06:01:12;5.80;99.90
55721;DHT22;41626;53.098;6.168;2023-03-04T06:03:38;5.90;99.90
55721;DHT22;41626;53.098;6.168;2023-03-04T06:06:04;6.00;99.90
55721;DHT22;41626;53.098;6.168;2023-03-04T06:08:30;5.80;99.90
55721;DHT22;41626;53.098;6.168;2023-03-04T06:10:56;6.00;99.90
55721;DHT22;41626;53.098;6.168;2023-03-04T06:13:24;5.90;99.90
55721;DHT22;41626;53.098;6.168;2023-03-04T06:15:57;5.90;99.90
55721;DHT22;41626;53.098;6.168;2023-03-04T06:18:24;6.00;99.90
55721;DHT22;41626;53.098;6.168;2023-03-04T06:20:50;5.80;99.90
55721;DHT22;41626;53.098;6.168;2023-03-04T06:23:19;5.80;99.90
55721;DHT22;41626;53.098;6.168;2023-03-04T06:25:45;5.70;99.90
55721;DHT22;41626;53.098;6.168;2023-03-04T06:28:11;5.80;99.90
55721;DHT22;41626;53.098;6.168;2023-03-04T06:30:36;5.70;99.90
55721;DHT22;41626;53.098;6.168;2023-03-04T06:33:02;5.70;99.90
55721;DHT22;41626;53.098;6.168;2023-03-04T06:35:28;5.70;99.90
55721;DHT22;41626;53.098;6.168;2023-03-04T06:37:53;5.80;99.90
55721;DHT22;41626;53.098;6.168;2023-03-04T06:40:19;5.80;99.90
55721;DHT22;41626;53.098;6.168;2023-03-04T06:42:45;5.70;99.90
55721;DHT22;41626;53.098;6.168;2023-03-04T06:45:11;5.80;99.90
55721;DHT22;41626;53.098;6.168;2023-03-04T06:47:37;5.80;99.90
55721;DHT22;41626;53.098;6.168;2023-03-04T06:50:03;5.70;99.90
55721;DHT22;41626;53.098;6.168;2023-03-04T06:52:29;5.70;99.90
55721;DHT22;41626;53.098;6.168;2023-03-04T06:54:55;5.80;99.90
55721;DHT22;41626;53.098;6.168;2023-03-04T06:57:21;5.90;99.90
55721;DHT22;41626;53.098;6.168;2023-03-04T06:59:46;5.70;99.90
55721;DHT22;41626;53.098;6.168;2023-03-04T07:02:12;5.80;99.90
55721;DHT22;41626;53.098;6.168;2023-03-04T07:04:38;5.80;99.90
55721;DHT22;41626;53.098;6.168;2023-03-04T07:07:04;5.90;99.90
55721;DHT22;41626;53.098;6.168;2023-03-04T07:09:30;5.90;99.90
55721;DHT22;41626;53.098;6.168;2023-03-04T07:11:56;5.90;99.90
55721;DHT22;41626;53.098;6.168;2023-03-04T07:14:22;6.00;99.90
55721;DHT22;41626;53.098;6.168;2023-03-04T07:16:47;6.00;99.90
55721;DHT22;41626;53.098;6.168;2023-03-04T07:19:13;6.00;99.90
55721;DHT22;41626;53.098;6.168;2023-03-04T07:21:39;6.10;99.90
55721;DHT22;41626;53.098;6.168;2023-03-04T07:24:04;6.10;99.90
55721;DHT22;41626;53.098;6.168;2023-03-04T07:26:30;6.10;99.90
55721;DHT22;41626;53.098;6.168;2023-03-04T07:28:56;6.10;99.90
55721;DHT22;41626;53.098;6.168;2023-03-04T07:33:59;6.10;99.90
55721;DHT22;41626;53.098;6.168;2023-03-04T07:36:25;6.20;99.90
55721;DHT22;41626;53.098;6.168;2023-03-04T07:38:51;6.20;99.90
55721;DHT22;41626;53.098;6.168;2023-03-04T07:41:19;6.20;99.90
55721;DHT22;41626;53.098;6.168;2023-03-04T07:43:45;6.20;99.90
55721;DHT22;41626;53.098;6.168;2023-03-04T07:46:11;6.30;99.90
55721;DHT22;41626;53.098;6.168;2023-03-04T07:48:37;6.20;99.90
55721;DHT22;41626;53.098;6.168;2023-03-04T07:51:08;6.40;99.90
55721;DHT22;41626;53.098;6.168;2023-03-04T07:53:35;6.40;99.90
55721;DHT22;41626;53.098;6.168;2023-03-04T07:56:01;6.40;99.90
55721;DHT22;41626;53.098;6.168;2023-03-04T07:58:27;6.50;99.90
55721;DHT22;41626;53.098;6.168;2023-03-04T08:00:53;6.40;99.90
55721;DHT22;41626;53.098;6.168;2023-03-04T08:03:19;6.30;99.90
55721;DHT22;41626;53.098;6.168;2023-03-04T08:05:44;6.40;99.90
55721;DHT22;41626;53.098;6.168;2023-03-04T08:08:10;6.60;99.90
55721;DHT22;41626;53.098;6.168;2023-03-04T08:10:36;6.60;99.90
55721;DHT22;41626;53.098;6.168;2023-03-04T08:13:05;6.60;99.90
55721;DHT22;41626;53.098;6.168;2023-03-04T08:15:30;6.60;99.90
55721;DHT22;41626;53.098;6.168;2023-03-04T08:17:57;6.60;99.90
55721;DHT22;41626;53.098;6.168;2023-03-04T08:20:23;6.60;99.90
55721;DHT22;41626;53.098;6.168;2023-03-04T08:22:50;6.70;99.90
55721;DHT22;41626;53.098;6.168;2023-03-04T08:25:16;6.60;99.90
55721;DHT22;41626;53.098;6.168;2023-03-04T08:27:41;6.60;99.90
55721;DHT22;41626;53.098;6.168;2023-03-04T08:30:08;6.60;99.90
55721;DHT22;41626;53.098;6.168;2023-03-04T08:32:34;6.60;99.90
55721;DHT22;41626;53.098;6.168;2023-03-04T08:35:00;6.50;99.90
55721;DHT22;41626;53.098;6.168;2023-03-04T08:37:30;6.60;99.90
55721;DHT22;41626;53.098;6.168;2023-03-04T08:39:56;6.60;99.90
55721;DHT22;41626;53.098;6.168;2023-03-04T08:42:22;6.70;99.90
55721;DHT22;41626;53.098;6.168;2023-03-04T08:44:49;6.80;99.90
55721;DHT22;41626;53.098;6.168;2023-03-04T08:47:14;6.90;99.90
55721;DHT22;41626;53.098;6.168;2023-03-04T08:49:40;6.90;99.90
55721;DHT22;41626;53.098;6.168;2023-03-04T08:52:06;6.80;99.90
55721;DHT22;41626;53.098;6.168;2023-03-04T08:54:32;6.90;99.90
55721;DHT22;41626;53.098;6.168;2023-03-04T08:56:57;6.90;99.90
55721;DHT22;41626;53.098;6.168;2023-03-04T08:59:23;6.90;99.90
55721;DHT22;41626;53.098;6.168;2023-03-04T09:01:52;6.90;99.90
55721;DHT22;41626;53.098;6.168;2023-03-04T09:04:17;6.90;99.90
55721;DHT22;41626;53.098;6.168;2023-03-04T09:06:43;6.90;99.90
55721;DHT22;41626;53.098;6.168;2023-03-04T09:09:09;6.80;99.90
55721;DHT22;41626;53.098;6.168;2023-03-04T09:11:34;6.80;99.90
55721;DHT22;41626;53.098;6.168;2023-03-04T09:14:00;6.80;99.90
55721;DHT22;41626;53.098;6.168;2023-03-04T09:16:26;6.80;99.90
55721;DHT22;41626;53.098;6.168;2023-03-04T09:18:51;6.80;99.90
55721;DHT22;41626;53.098;6.168;2023-03-04T09:21:17;6.80;99.90
55721;DHT22;41626;53.098;6.168;2023-03-04T09:23:43;6.90;99.90
55721;DHT22;41626;53.098;6.168;2023-03-04T09:26:21;6.90;99.90
55721;DHT22;41626;53.098;6.168;2023-03-04T09:28:55;6.90;99.90
55721;DHT22;41626;53.098;6.168;2023-03-04T09:31:23;7.10;99.90
55721;DHT22;41626;53.098;6.168;2023-03-04T09:33:49;7.10;99.90
55721;DHT22;41626;53.098;6.168;2023-03-04T09:36:15;7.00;99.90
55721;DHT22;41626;53.098;6.168;2023-03-04T09:38:41;6.90;99.90
55721;DHT22;41626;53.098;6.168;2023-03-04T09:41:38;6.90;99.90
55721;DHT22;41626;53.098;6.168;2023-03-04T09:44:14;7.00;99.90
55721;DHT22;41626;53.098;6.168;2023-03-04T09:46:41;7.00;99.90
55721;DHT22;41626;53.098;6.168;2023-03-04T09:49:10;7.00;99.90
55721;DHT22;41626;53.098;6.168;2023-03-04T09:54:52;7.10;99.90
55721;DHT22;41626;53.098;6.168;2023-03-04T09:57:32;7.20;99.90
55721;DHT22;41626;53.098;6.168;2023-03-04T10:00:12;7.20;99.90
55721;DHT22;41626;53.098;6.168;2023-03-04T10:05:33;7.30;99.90
55721;DHT22;41626;53.098;6.168;2023-03-04T10:08:24;7.10;99.90
55721;DHT22;41626;53.098;6.168;2023-03-04T10:10:53;7.20;99.90
55721;DHT22;41626;53.098;6.168;2023-03-04T10:13:29;7.20;99.90
55721;DHT22;41626;53.098;6.168;2023-03-04T10:16:00;7.30;99.90
55721;DHT22;41626;53.098;6.168;2023-03-04T10:18:31;7.40;99.90
55721;DHT22;41626;53.098;6.168;2023-03-04T10:21:13;7.30;99.90
55721;DHT22;41626;53.098;6.168;2023-03-04T10:23:42;7.40;99.90
55721;DHT22;41626;53.098;6.168;2023-03-04T10:26:12;7.50;99.90
55721;DHT22;41626;53.098;6.168;2023-03-04T10:28:38;7.70;99.90
55721;DHT22;41626;53.098;6.168;2023-03-04T10:33:35;7.80;99.90
55721;DHT22;41626;53.098;6.168;2023-03-04T10:38:51;7.50;99.90
55721;DHT22;41626;53.098;6.168;2023-03-04T10:41:22;7.40;99.90
55721;DHT22;41626;53.098;6.168;2023-03-04T10:44:16;7.20;99.90
55721;DHT22;41626;53.098;6.168;2023-03-04T10:46:44;7.00;99.90
55721;DHT22;41626;53.098;6.168;2023-03-04T10:49:12;7.00;99.90
55721;DHT22;41626;53.098;6.168;2023-03-04T10:51:51;7.10;99.90
55721;DHT22;41626;53.098;6.168;2023-03-04T10:54:41;6.90;99.90
55721;DHT22;41626;53.098;6.168;2023-03-04T10:57:17;6.90;99.90
55721;DHT22;41626;53.098;6.168;2023-03-04T11:00:00;7.10;99.90
55721;DHT22;41626;53.098;6.168;2023-03-04T11:02:30;7.00;99.90
55721;DHT22;41626;53.098;6.168;2023-03-04T11:05:16;7.20;99.90
55721;DHT22;41626;53.098;6.168;2023-03-04T11:07:55;7.60;99.90
55721;DHT22;41626;53.098;6.168;2023-03-04T11:10:28;7.60;99.90
55721;DHT22;41626;53.098;6.168;2023-03-04T11:15:25;7.80;99.90
55721;DHT22;41626;53.098;6.168;2023-03-04T11:18:09;7.70;99.90
55721;DHT22;41626;53.098;6.168;2023-03-04T11:20:44;7.50;99.90
55721;DHT22;41626;53.098;6.168;2023-03-04T11:23:19;7.50;99.90
55721;DHT22;41626;53.098;6.168;2023-03-04T11:25:52;7.50;99.90
55721;DHT22;41626;53.098;6.168;2023-03-04T11:28:27;7.70;99.90
55721;DHT22;41626;53.098;6.168;2023-03-04T11:30:57;7.80;99.90
55721;DHT22;41626;53.098;6.168;2023-03-04T11:36:28;8.00;99.90
55721;DHT22;41626;53.098;6.168;2023-03-04T11:38:57;7.90;99.90
55721;DHT22;41626;53.098;6.168;2023-03-04T11:41:33;7.70;99.90
55721;DHT22;41626;53.098;6.168;2023-03-04T11:44:00;7.70;99.90
55721;DHT22;41626;53.098;6.168;2023-03-04T11:54:31;8.00;99.90
55721;DHT22;41626;53.098;6.168;2023-03-04T11:57:05;8.00;99.90
55721;DHT22;41626;53.098;6.168;2023-03-04T12:02:10;7.80;99.90
55721;DHT22;41626;53.098;6.168;2023-03-04T12:05:05;7.60;99.90
55721;DHT22;41626;53.098;6.168;2023-03-04T12:13:18;7.70;99.90
55721;DHT22;41626;53.098;6.168;2023-03-04T12:18:44;7.50;99.90
55721;DHT22;41626;53.098;6.168;2023-03-04T12:29:43;8.00;99.90
55721;DHT22;41626;53.098;6.168;2023-03-04T12:32:38;7.70;99.90
55721;DHT22;41626;53.098;6.168;2023-03-04T12:38:09;7.20;99.90
55721;DHT22;41626;53.098;6.168;2023-03-04T12:40:55;7.10;99.90
55721;DHT22;41626;53.098;6.168;2023-03-04T12:46:26;7.10;99.90
55721;DHT22;41626;53.098;6.168;2023-03-04T12:49:25;7.40;99.90
55721;DHT22;41626;53.098;6.168;2023-03-04T12:54:38;7.70;99.90
55721;DHT22;41626;53.098;6.168;2023-03-04T12:57:14;7.50;99.90
55721;DHT22;41626;53.098;6.168;2023-03-04T13:16:50;7.70;99.90
55721;DHT22;41626;53.098;6.168;2023-03-04T13:19:45;8.00;99.90
55721;DHT22;41626;53.098;6.168;2023-03-04T13:22:39;7.90;99.90
55721;DHT22;41626;53.098;6.168;2023-03-04T13:25:27;8.00;99.90
55721;DHT22;41626;53.098;6.168;2023-03-04T13:35:58;7.60;99.90
55721;DHT22;41626;53.098;6.168;2023-03-04T13:42:36;7.40;99.90
55721;DHT22;41626;53.098;6.168;2023-03-04T13:44:01;7.20;99.90
55721;DHT22;41626;53.098;6.168;2023-03-04T13:54:14;7.30;99.90
55721;DHT22;41626;53.098;6.168;2023-03-04T13:56:47;7.20;99.90
55721;DHT22;41626;53.098;6.168;2023-03-04T13:59:27;7.10;99.90
55721;DHT22;41626;53.098;6.168;2023-03-04T14:02:12;7.00;99.90
55721;DHT22;41626;53.098;6.168;2023-03-04T14:04:42;7.00;99.90
55721;DHT22;41626;53.098;6.168;2023-03-04T14:07:23;7.00;99.90
55721;DHT22;41626;53.098;6.168;2023-03-04T14:12:19;7.20;99.90
55721;DHT22;41626;53.098;6.168;2023-03-04T14:14:53;7.10;99.90
55721;DHT22;41626;53.098;6.168;2023-03-04T14:17:27;7.30;99.90
55721;DHT22;41626;53.098;6.168;2023-03-04T14:19:54;7.50;99.90
55721;DHT22;41626;53.098;6.168;2023-03-04T14:22:29;7.40;99.90
55721;DHT22;41626;53.098;6.168;2023-03-04T14:27:40;6.90;99.90
55721;DHT22;41626;53.098;6.168;2023-03-04T14:30:18;6.80;99.90
55721;DHT22;41626;53.098;6.168;2023-03-04T14:32:44;6.80;99.90
55721;DHT22;41626;53.098;6.168;2023-03-04T14:35:21;6.60;99.90
55721;DHT22;41626;53.098;6.168;2023-03-04T14:40:26;7.00;99.90
55721;DHT22;41626;53.098;6.168;2023-03-04T14:43:06;7.00;99.90
55721;DHT22;41626;53.098;6.168;2023-03-04T14:45:32;6.90;99.90
55721;DHT22;41626;53.098;6.168;2023-03-04T14:48:04;6.70;99.90
55721;DHT22;41626;53.098;6.168;2023-03-04T14:50:31;6.60;99.90
55721;DHT22;41626;53.098;6.168;2023-03-04T14:53:13;6.40;99.90
55721;DHT22;41626;53.098;6.168;2023-03-04T14:55:39;6.40;99.90
55721;DHT22;41626;53.098;6.168;2023-03-04T14:58:29;6.40;99.90
55721;DHT22;41626;53.098;6.168;2023-03-04T15:01:12;6.30;99.90
55721;DHT22;41626;53.098;6.168;2023-03-04T15:03:39;6.30;99.90
55721;DHT22;41626;53.098;6.168;2023-03-04T15:06:26;6.40;99.90
55721;DHT22;41626;53.098;6.168;2023-03-04T15:09:01;6.40;99.90
55721;DHT22;41626;53.098;6.168;2023-03-04T15:11:48;6.40;99.90
55721;DHT22;41626;53.098;6.168;2023-03-04T15:17:31;6.50;99.90
55721;DHT22;41626;53.098;6.168;2023-03-04T15:22:55;6.70;99.90
55721;DHT22;41626;53.098;6.168;2023-03-04T15:25:16;6.60;99.90
55721;DHT22;41626;53.098;6.168;2023-03-04T15:27:44;6.40;99.90
55721;DHT22;41626;53.098;6.168;2023-03-04T15:30:21;6.40;99.90
55721;DHT22;41626;53.098;6.168;2023-03-04T15:32:48;6.50;99.90
55721;DHT22;41626;53.098;6.168;2023-03-04T15:35:17;6.40;99.90
55721;DHT22;41626;53.098;6.168;2023-03-04T15:37:44;6.50;99.90
55721;DHT22;41626;53.098;6.168;2023-03-04T15:40:30;6.40;99.90
55721;DHT22;41626;53.098;6.168;2023-03-04T15:42:57;6.30;99.90
55721;DHT22;41626;53.098;6.168;2023-03-04T15:45:29;6.40;99.90
55721;DHT22;41626;53.098;6.168;2023-03-04T15:47:55;6.30;99.90
55721;DHT22;41626;53.098;6.168;2023-03-04T15:50:21;6.30;99.90
55721;DHT22;41626;53.098;6.168;2023-03-04T15:52:51;6.20;99.90
55721;DHT22;41626;53.098;6.168;2023-03-04T15:55:19;6.20;99.90
55721;DHT22;41626;53.098;6.168;2023-03-04T15:57:48;6.30;99.90
55721;DHT22;41626;53.098;6.168;2023-03-04T16:00:15;6.20;99.90
55721;DHT22;41626;53.098;6.168;2023-03-04T16:02:41;6.20;99.90
55721;DHT22;41626;53.098;6.168;2023-03-04T16:05:07;6.10;99.90
55721;DHT22;41626;53.098;6.168;2023-03-04T16:07:33;6.00;99.90
55721;DHT22;41626;53.098;6.168;2023-03-04T16:10:06;6.10;99.90
55721;DHT22;41626;53.098;6.168;2023-03-04T16:12:33;6.10;99.90
55721;DHT22;41626;53.098;6.168;2023-03-04T16:14:59;6.10;99.90
55721;DHT22;41626;53.098;6.168;2023-03-04T16:17:24;6.10;99.90
55721;DHT22;41626;53.098;6.168;2023-03-04T16:19:50;6.10;99.90
55721;DHT22;41626;53.098;6.168;2023-03-04T16:22:23;6.10;99.90
55721;DHT22;41626;53.098;6.168;2023-03-04T16:24:50;6.10;99.90
55721;DHT22;41626;53.098;6.168;2023-03-04T16:27:17;6.10;99.90
55721;DHT22;41626;53.098;6.168;2023-03-04T16:29:43;6.10;99.90
55721;DHT22;41626;53.098;6.168;2023-03-04T16:32:09;6.20;99.90
55721;DHT22;41626;53.098;6.168;2023-03-04T16:34:35;6.00;99.90
55721;DHT22;41626;53.098;6.168;2023-03-04T16:37:06;5.90;99.90
55721;DHT22;41626;53.098;6.168;2023-03-04T16:39:32;5.80;99.90
55721;DHT22;41626;53.098;6.168;2023-03-04T16:41:58;5.70;99.90
55721;DHT22;41626;53.098;6.168;2023-03-04T16:44:24;5.60;99.90
55721;DHT22;41626;53.098;6.168;2023-03-04T16:46:50;5.70;99.90
55721;DHT22;41626;53.098;6.168;2023-03-04T16:49:15;5.50;99.90
55721;DHT22;41626;53.098;6.168;2023-03-04T16:51:46;5.60;99.90
55721;DHT22;41626;53.098;6.168;2023-03-04T16:54:17;5.60;99.90
55721;DHT22;41626;53.098;6.168;2023-03-04T16:56:43;5.70;99.90
55721;DHT22;41626;53.098;6.168;2023-03-04T16:59:16;5.50;99.90
55721;DHT22;41626;53.098;6.168;2023-03-04T17:01:42;5.60;99.90
55721;DHT22;41626;53.098;6.168;2023-03-04T17:04:08;5.70;99.90
55721;DHT22;41626;53.098;6.168;2023-03-04T17:06:34;5.70;99.90
55721;DHT22;41626;53.098;6.168;2023-03-04T17:09:06;5.60;99.90
55721;DHT22;41626;53.098;6.168;2023-03-04T17:11:32;5.60;99.90
55721;DHT22;41626;53.098;6.168;2023-03-04T17:13:58;5.60;99.90
55721;DHT22;41626;53.098;6.168;2023-03-04T17:16:24;5.40;99.90
55721;DHT22;41626;53.098;6.168;2023-03-04T17:18:50;5.50;99.90
55721;DHT22;41626;53.098;6.168;2023-03-04T17:21:19;5.60;99.90
55721;DHT22;41626;53.098;6.168;2023-03-04T17:23:45;5.50;99.90
55721;DHT22;41626;53.098;6.168;2023-03-04T17:26:10;5.60;99.90
55721;DHT22;41626;53.098;6.168;2023-03-04T17:28:37;5.40;99.90
55721;DHT22;41626;53.098;6.168;2023-03-04T17:31:14;5.40;99.90
55721;DHT22;41626;53.098;6.168;2023-03-04T17:33:40;5.50;99.90
55721;DHT22;41626;53.098;6.168;2023-03-04T17:36:06;5.50;99.90
55721;DHT22;41626;53.098;6.168;2023-03-04T17:38:32;5.50;99.90
55721;DHT22;41626;53.098;6.168;2023-03-04T17:41:06;5.50;99.90
55721;DHT22;41626;53.098;6.168;2023-03-04T17:43:32;5.50;99.90